createdAt,value
2018-09-12T00:01:20.875Z,51.48
2018-09-12T00:03:49.830Z,50.03
2018-09-12T00:06:18.850Z,50.09
2018-09-12T00:08:47.843Z,49.98
2018-09-12T00:11:16.934Z,50.46
2018-09-12T00:13:45.963Z,49.73
2018-09-12T00:16:15.073Z,49.61
2018-09-12T00:18:44.063Z,49.16
2018-09-12T00:21:13.124Z,49.31
2018-09-12T00:23:42.142Z,49.88
2018-09-12T00:26:11.197Z,49.60
2018-09-12T00:28:40.089Z,50.10
2018-09-12T00:31:09.132Z,49.97
2018-09-12T00:33:38.111Z,51.29
2018-09-12T00:36:07.057Z,51.34
2018-09-12T00:38:36.121Z,51.38
2018-09-12T00:41:05.198Z,50.96
2018-09-12T00:43:34.121Z,52.55
2018-09-12T00:46:03.161Z,52.12
2018-09-12T00:48:32.174Z,53.07
2018-09-12T00:51:01.193Z,52.47
2018-09-12T00:53:30.126Z,52.38
2018-09-12T00:55:59.105Z,52.27
2018-09-12T00:58:28.058Z,53.03
2018-09-12T01:00:57.102Z,52.68
2018-09-12T01:03:26.026Z,51.58
2018-09-12T01:05:55.002Z,51.85
2018-09-12T01:08:23.953Z,52.04
2018-09-12T01:10:52.937Z,51.30
2018-09-12T01:13:21.870Z,51.65
2018-09-12T01:15:50.877Z,51.84
2018-09-12T01:18:20.849Z,51.80
2018-09-12T01:20:51.422Z,53.12
2018-09-12T01:23:21.365Z,52.13
2018-09-12T01:25:50.388Z,53.28
2018-09-12T01:28:19.410Z,52.48
2018-09-12T01:30:48.454Z,52.15
2018-09-12T01:33:17.377Z,53.00
2018-09-12T01:35:46.346Z,53.22
2018-09-12T01:38:15.326Z,53.73
2018-09-12T01:40:44.350Z,53.93
2018-09-12T01:43:13.294Z,53.62
2018-09-12T01:45:42.321Z,53.44
2018-09-12T01:48:11.227Z,53.11
2018-09-12T01:50:40.349Z,53.40
2018-09-12T01:53:09.266Z,54.07
2018-09-12T01:55:38.267Z,54.54
2018-09-12T01:58:07.377Z,55.03
2018-09-12T02:00:39.438Z,54.89
2018-09-12T02:03:08.662Z,54.68
2018-09-12T02:05:38.329Z,55.44
2018-09-12T02:08:07.598Z,55.67
2018-09-12T02:10:36.584Z,55.54
2018-09-12T02:13:05.554Z,55.91
2018-09-12T02:15:34.488Z,56.14
2018-09-12T02:18:03.476Z,56.20
2018-09-12T02:20:32.425Z,56.44
2018-09-12T02:23:01.378Z,56.32
2018-09-12T02:25:30.349Z,56.18
2018-09-12T02:27:59.307Z,57.09
2018-09-12T02:30:28.212Z,57.67
2018-09-12T02:32:57.191Z,57.13
2018-09-12T02:35:26.120Z,57.72
2018-09-12T02:37:55.125Z,57.11
2018-09-12T02:40:24.072Z,56.94
2018-09-12T02:42:53.014Z,57.76
2018-09-12T02:45:21.981Z,57.06
2018-09-12T02:47:51.008Z,56.16
2018-09-12T02:50:19.922Z,56.21
2018-09-12T02:52:48.930Z,56.96
2018-09-12T02:55:17.888Z,57.64
2018-09-12T02:57:46.977Z,58.07
2018-09-12T03:00:15.936Z,57.30
2018-09-12T03:02:44.939Z,57.85
2018-09-12T03:05:13.949Z,57.48
2018-09-12T03:07:43.001Z,57.87
2018-09-12T03:10:12.067Z,58.66
2018-09-12T03:12:41.002Z,57.97
2018-09-12T03:15:09.966Z,58.18
2018-09-12T03:17:39.101Z,58.69
2018-09-12T03:20:08.016Z,58.54
2018-09-12T03:22:37.046Z,59.34
2018-09-12T03:25:06.002Z,59.24
2018-09-12T03:27:35.052Z,58.86
2018-09-12T03:30:04.066Z,59.57
2018-09-12T03:32:33.129Z,59.58
2018-09-12T03:35:02.016Z,60.68
2018-09-12T03:37:31.054Z,62.95
2018-09-12T03:40:00.041Z,61.23
2018-09-12T03:42:29.026Z,61.98
2018-09-12T03:44:58.118Z,60.51
2018-09-12T03:47:27.141Z,60.81
2018-09-12T03:49:56.089Z,60.13
2018-09-12T03:52:25.142Z,60.64
2018-09-12T03:54:54.041Z,61.41
2018-09-12T03:57:23.014Z,61.29
2018-09-12T03:59:52.026Z,60.96
2018-09-12T04:02:21.110Z,60.99
2018-09-12T04:04:50.080Z,61.56
2018-09-12T04:07:19.271Z,62.50
2018-09-12T04:09:48.293Z,61.64
2018-09-12T04:12:17.257Z,62.52
2018-09-12T04:14:46.246Z,62.94
2018-09-12T04:17:15.282Z,64.34
2018-09-12T04:19:44.236Z,62.22
2018-09-12T04:22:13.190Z,61.59
2018-09-12T04:24:42.180Z,60.78
2018-09-12T04:27:11.330Z,61.03
2018-09-12T04:29:40.393Z,60.48
2018-09-12T04:32:09.454Z,60.77
2018-09-12T04:34:38.421Z,60.16
2018-09-12T04:37:07.561Z,61.40
2018-09-12T04:39:36.601Z,61.92
2018-09-12T04:42:05.798Z,62.18
2018-09-12T04:44:34.771Z,62.05
2018-09-12T04:47:03.929Z,61.97
2018-09-12T04:49:32.913Z,60.75
2018-09-12T04:52:01.930Z,61.39
2018-09-12T04:54:30.901Z,62.53
2018-09-12T04:56:59.865Z,62.46
2018-09-12T04:59:28.910Z,64.38
2018-09-12T05:01:57.927Z,64.69
2018-09-12T05:04:26.978Z,66.68
2018-09-12T05:06:55.977Z,65.02
2018-09-12T05:09:24.947Z,65.16
2018-09-12T05:11:53.949Z,64.74
2018-09-12T05:14:22.979Z,64.97
2018-09-12T05:16:52.132Z,65.72
2018-09-12T05:19:21.175Z,64.77
2018-09-12T05:21:50.205Z,64.88
2018-09-12T05:24:19.277Z,63.43
2018-09-12T05:26:48.329Z,64.19
2018-09-12T05:29:17.308Z,63.49
2018-09-12T05:31:46.414Z,64.42
2018-09-12T05:34:15.402Z,63.96
2018-09-12T05:36:44.377Z,63.31
2018-09-12T05:39:13.380Z,64.34
2018-09-12T05:41:42.377Z,66.30
2018-09-12T05:44:11.357Z,66.10
2018-09-12T05:46:40.352Z,66.22
2018-09-12T05:49:09.278Z,63.95
2018-09-12T05:51:38.346Z,62.42
2018-09-12T05:54:07.386Z,63.54
2018-09-12T05:56:36.533Z,63.02
2018-09-12T05:59:05.713Z,61.95
2018-09-12T06:01:34.718Z,61.44
2018-09-12T06:04:03.740Z,60.31
2018-09-12T06:06:32.771Z,59.63
2018-09-12T06:09:01.691Z,60.00
2018-09-12T06:11:30.671Z,59.17
2018-09-12T06:13:59.680Z,57.85
2018-09-12T06:16:29.448Z,58.40
2018-09-12T06:18:58.560Z,58.94
2018-09-12T06:21:27.857Z,58.89
2018-09-12T06:23:56.787Z,59.69
2018-09-12T06:26:25.761Z,59.21
2018-09-12T06:28:54.766Z,58.34
2018-09-12T06:31:23.659Z,58.09
2018-09-12T06:33:52.620Z,56.97
2018-09-12T06:36:21.677Z,55.69
2018-09-12T06:38:50.602Z,54.71
2018-09-12T06:41:19.577Z,53.97
2018-09-12T06:43:48.589Z,54.82
2018-09-12T06:46:17.527Z,55.08
2018-09-12T06:48:46.698Z,53.15
2018-09-12T06:51:15.761Z,53.62
2018-09-12T06:53:44.859Z,53.70
2018-09-12T06:56:14.348Z,55.62
2018-09-12T06:58:43.381Z,54.10
2018-09-12T07:01:12.354Z,53.38
2018-09-12T07:03:41.372Z,52.84
2018-09-12T07:06:10.309Z,53.29
2018-09-12T07:08:39.356Z,54.52
2018-09-12T07:11:08.340Z,55.19
2018-09-12T07:13:37.388Z,55.40
2018-09-12T07:16:06.369Z,53.91
2018-09-12T07:18:35.418Z,52.63
2018-09-12T07:21:04.362Z,54.08
2018-09-12T07:23:33.420Z,51.40
2018-09-12T07:26:02.382Z,49.82
2018-09-12T07:28:31.498Z,52.27
2018-09-12T07:31:00.442Z,51.54
2018-09-12T07:33:29.457Z,50.83
2018-09-12T07:35:58.481Z,51.01
2018-09-12T07:38:27.567Z,51.53
2018-09-12T07:40:56.517Z,51.11
2018-09-12T07:43:25.576Z,51.48
2018-09-12T07:45:54.613Z,49.35
2018-09-12T07:48:23.610Z,47.18
2018-09-12T07:50:52.576Z,48.75
2018-09-12T07:53:21.554Z,49.92
2018-09-12T07:55:50.516Z,47.62
2018-09-12T07:58:19.547Z,48.87
2018-09-12T08:00:48.618Z,48.07
2018-09-12T08:03:17.594Z,49.12
2018-09-12T08:05:46.593Z,47.03
2018-09-12T08:08:15.647Z,46.29
2018-09-12T08:10:44.565Z,46.46
2018-09-12T08:13:13.570Z,43.41
2018-09-12T08:15:42.509Z,42.50
2018-09-12T08:18:11.446Z,42.51
2018-09-12T08:20:40.370Z,42.49
2018-09-12T08:23:09.398Z,41.79
2018-09-12T08:25:38.369Z,41.34
2018-09-12T08:28:07.416Z,40.40
2018-09-12T08:30:36.441Z,40.86
2018-09-12T08:33:05.558Z,39.89
2018-09-12T08:35:34.733Z,38.55
2018-09-12T08:38:04.094Z,39.28
2018-09-12T08:40:33.101Z,38.98
2018-09-12T08:43:02.032Z,36.94
2018-09-12T08:45:30.965Z,36.94
2018-09-12T08:48:00.126Z,37.76
2018-09-12T08:50:29.000Z,36.32
2018-09-12T08:52:58.018Z,36.66
2018-09-12T08:55:27.058Z,35.52
2018-09-12T08:57:56.174Z,34.91
2018-09-12T09:00:30.845Z,34.18
2018-09-12T09:02:59.870Z,34.48
2018-09-12T09:05:28.821Z,35.62
2018-09-12T09:07:57.919Z,35.19
2018-09-12T09:10:27.461Z,32.63
2018-09-12T09:12:57.528Z,32.32
2018-09-12T09:15:27.309Z,32.41
2018-09-12T09:17:56.633Z,35.13
2018-09-12T09:20:26.026Z,34.89
2018-09-12T09:22:55.193Z,33.40
2018-09-12T09:25:24.211Z,33.78
2018-09-12T09:27:53.177Z,32.98
2018-09-12T09:30:22.372Z,32.80
2018-09-12T09:32:51.357Z,33.11
2018-09-12T09:35:20.339Z,32.05
2018-09-12T09:37:49.249Z,30.18
2018-09-12T09:40:18.224Z,31.45
2018-09-12T09:42:47.222Z,32.59
2018-09-12T09:45:16.262Z,30.26
2018-09-12T09:47:45.287Z,30.89
2018-09-12T09:50:14.321Z,30.17
2018-09-12T09:52:43.260Z,29.93
2018-09-12T09:55:12.353Z,29.69
2018-09-12T09:57:41.322Z,28.76
2018-09-12T10:00:16.183Z,29.38
2018-09-12T10:02:50.445Z,30.03
2018-09-12T10:05:24.737Z,29.14
2018-09-12T10:07:59.037Z,28.72
2018-09-12T10:10:28.076Z,27.80
2018-09-12T10:12:57.098Z,29.90
2018-09-12T10:15:26.103Z,27.89
2018-09-12T10:17:55.146Z,27.57
2018-09-12T10:20:24.227Z,27.76
2018-09-12T10:22:53.227Z,28.89
2018-09-12T10:25:22.234Z,27.92
2018-09-12T10:27:51.195Z,28.17
2018-09-12T10:30:20.328Z,27.05
2018-09-12T10:32:49.296Z,27.05
2018-09-12T10:35:18.297Z,28.81
2018-09-12T10:37:47.197Z,28.86
2018-09-12T10:40:16.505Z,26.89
2018-09-12T10:42:45.655Z,26.77
2018-09-12T10:45:14.710Z,25.28
2018-09-12T10:47:43.694Z,24.78
2018-09-12T10:50:12.898Z,26.12
2018-09-12T10:52:41.890Z,26.13
2018-09-12T10:55:10.862Z,24.95
2018-09-12T10:57:39.855Z,24.51
2018-09-12T11:00:09.306Z,24.75
2018-09-12T11:02:38.337Z,24.00
2018-09-12T11:05:07.451Z,24.40
2018-09-12T11:07:36.482Z,24.98
2018-09-12T11:10:05.526Z,26.07
2018-09-12T11:12:34.449Z,26.07
2018-09-12T11:15:03.627Z,25.81
2018-09-12T11:17:32.590Z,25.79
2018-09-12T11:20:01.626Z,24.91
2018-09-12T11:22:30.561Z,25.26
2018-09-12T11:24:59.617Z,23.56
2018-09-12T11:27:28.570Z,23.09
2018-09-12T11:29:57.550Z,25.70
2018-09-12T11:32:26.531Z,25.49
2018-09-12T11:34:55.590Z,22.81
2018-09-12T11:37:24.563Z,23.24
2018-09-12T11:39:53.630Z,23.60
2018-09-12T11:42:22.585Z,23.60
2018-09-12T11:44:51.611Z,21.76
2018-09-12T11:47:20.616Z,22.73
2018-09-12T11:49:49.681Z,24.55
2018-09-12T11:52:18.688Z,23.05
2018-09-12T11:54:48.104Z,25.49
2018-09-12T11:57:17.474Z,24.64
2018-09-12T11:59:46.504Z,23.71
2018-09-12T12:02:15.575Z,21.96
2018-09-12T12:04:44.474Z,21.41
2018-09-12T12:07:13.489Z,21.41
2018-09-12T12:09:42.571Z,20.72
2018-09-12T12:12:11.762Z,20.07
2018-09-12T12:14:40.719Z,19.40
2018-09-12T12:17:09.669Z,19.98
2018-09-12T12:19:38.641Z,19.72
2018-09-12T12:22:07.701Z,20.66
2018-09-12T12:24:36.706Z,20.18
2018-09-12T12:27:06.007Z,21.18
2018-09-12T12:29:35.172Z,19.01
2018-09-12T12:32:04.266Z,17.15
2018-09-12T12:34:33.259Z,16.66
2018-09-12T12:37:02.301Z,17.09
2018-09-12T12:39:31.322Z,15.63
2018-09-12T12:42:00.320Z,15.23
2018-09-12T12:44:29.311Z,16.94
2018-09-12T12:46:58.456Z,15.31
2018-09-12T12:49:27.434Z,15.70
2018-09-12T12:51:56.555Z,16.81
2018-09-12T12:54:25.597Z,16.47
2018-09-12T12:56:54.665Z,16.68
2018-09-12T12:59:23.686Z,16.37
2018-09-12T13:01:52.858Z,16.25
2018-09-12T13:04:21.983Z,15.94
2018-09-12T13:06:51.113Z,16.73
2018-09-12T13:09:20.023Z,15.56
2018-09-12T13:11:49.050Z,15.88
2018-09-12T13:14:17.989Z,15.55
2018-09-12T13:16:47.013Z,15.38
2018-09-12T13:19:16.052Z,15.52
2018-09-12T13:21:45.108Z,15.71
2018-09-12T13:24:14.179Z,15.39
2018-09-12T13:26:43.122Z,14.99
2018-09-12T13:29:12.091Z,15.30
2018-09-12T13:31:41.133Z,14.71
2018-09-12T13:34:10.314Z,13.97
2018-09-12T13:36:39.349Z,14.51
2018-09-12T13:39:15.293Z,14.92
2018-09-12T13:41:44.338Z,14.88
2018-09-12T13:44:13.342Z,15.13
2018-09-12T13:46:42.334Z,15.03
2018-09-12T13:49:11.262Z,15.23
2018-09-12T13:51:40.266Z,15.39
2018-09-12T13:54:09.219Z,15.33
2018-09-12T13:56:38.287Z,15.51
2018-09-12T13:59:07.309Z,15.17
2018-09-12T14:01:36.405Z,15.29
2018-09-12T14:04:05.354Z,15.81
2018-09-12T14:06:34.345Z,14.96
2018-09-12T14:09:03.473Z,14.36
2018-09-12T14:11:32.462Z,15.49
2018-09-12T14:14:01.571Z,14.99
2018-09-12T14:16:30.581Z,15.88
2018-09-12T14:18:59.567Z,15.48
2018-09-12T14:21:28.560Z,15.67
2018-09-12T14:23:57.671Z,15.76
2018-09-12T14:26:26.714Z,15.08
2018-09-12T14:28:55.824Z,15.43
2018-09-12T14:31:24.842Z,15.04
2018-09-12T14:33:53.910Z,15.89
2018-09-12T14:36:22.864Z,16.06
2018-09-12T14:38:51.955Z,16.71
2018-09-12T14:41:20.917Z,16.01
2018-09-12T14:43:49.921Z,15.78
2018-09-12T14:46:18.830Z,16.36
2018-09-12T14:48:47.883Z,15.51
2018-09-12T14:51:16.897Z,15.24
2018-09-12T14:53:45.869Z,16.27
2018-09-12T14:56:14.864Z,15.27
2018-09-12T14:58:43.854Z,14.36
2018-09-12T15:01:12.846Z,14.97
2018-09-12T15:03:41.756Z,16.30
2018-09-12T15:06:10.743Z,15.89
2018-09-12T15:08:39.851Z,14.70
2018-09-12T15:11:08.781Z,15.04
2018-09-12T15:13:37.835Z,17.86
2018-09-12T15:16:06.801Z,17.84
2018-09-12T15:18:35.866Z,18.34
2018-09-12T15:21:04.809Z,18.38
2018-09-12T15:23:33.917Z,19.83
2018-09-12T15:26:02.873Z,19.08
2018-09-12T15:28:32.067Z,19.20
2018-09-12T15:31:01.086Z,20.12
2018-09-12T15:33:30.161Z,19.91
2018-09-12T15:35:59.133Z,19.87
2018-09-12T15:38:28.093Z,19.69
2018-09-12T15:40:57.102Z,20.55
2018-09-12T15:43:26.035Z,20.86
2018-09-12T15:45:54.927Z,20.92
2018-09-12T15:48:23.930Z,20.94
2018-09-12T15:50:52.814Z,21.22
2018-09-12T15:53:21.891Z,21.49
2018-09-12T15:55:50.898Z,21.19
2018-09-12T15:58:19.940Z,21.28
2018-09-12T16:00:48.810Z,21.30
2018-09-12T16:03:17.806Z,21.02
2018-09-12T16:05:46.852Z,22.13
2018-09-12T16:08:15.853Z,21.46
2018-09-12T16:10:44.802Z,21.84
2018-09-12T16:13:13.911Z,21.34
2018-09-12T16:15:42.905Z,21.28
2018-09-12T16:18:11.917Z,21.67
2018-09-12T16:20:40.906Z,21.44
2018-09-12T16:23:09.921Z,21.92
2018-09-12T16:25:38.917Z,21.98
2018-09-12T16:28:07.870Z,22.60
2018-09-12T16:30:36.864Z,22.58
2018-09-12T16:33:05.963Z,22.99
2018-09-12T16:35:34.925Z,22.16
2018-09-12T16:38:03.885Z,22.02
2018-09-12T16:40:32.865Z,22.34
2018-09-12T16:43:01.927Z,23.35
2018-09-12T16:45:30.913Z,22.78
2018-09-12T16:47:59.954Z,22.93
2018-09-12T16:50:28.921Z,22.64
2018-09-12T16:52:57.929Z,23.35
2018-09-12T16:55:26.936Z,23.60
2018-09-12T16:57:55.981Z,23.42
2018-09-12T17:00:25.001Z,23.56
2018-09-12T17:02:54.279Z,23.48
2018-09-12T17:05:23.236Z,23.50
2018-09-12T17:07:52.217Z,23.51
2018-09-12T17:10:21.208Z,23.82
2018-09-12T17:12:50.181Z,24.01
2018-09-12T17:15:19.237Z,23.99
2018-09-12T17:17:48.289Z,24.60
2018-09-12T17:20:17.732Z,24.66
2018-09-12T17:22:46.742Z,24.79
2018-09-12T17:25:15.669Z,24.52
2018-09-12T17:27:44.690Z,24.90
2018-09-12T17:30:13.690Z,25.54
2018-09-12T17:32:42.638Z,24.89
2018-09-12T17:35:11.658Z,24.98
2018-09-12T17:37:40.592Z,24.94
2018-09-12T17:40:09.594Z,25.14
2018-09-12T17:42:38.490Z,25.16
2018-09-12T17:45:08.266Z,25.14
2018-09-12T17:47:37.504Z,25.63
2018-09-12T17:50:06.569Z,25.85
2018-09-12T17:52:35.466Z,26.01
2018-09-12T17:55:04.500Z,26.73
2018-09-12T17:57:33.379Z,27.62
2018-09-12T18:00:02.373Z,28.12
2018-09-12T18:02:31.331Z,29.29
2018-09-12T18:05:00.310Z,29.48
2018-09-12T18:07:29.224Z,31.10
2018-09-12T18:09:58.343Z,30.83
2018-09-12T18:12:27.294Z,32.09
2018-09-12T18:14:56.237Z,32.02
2018-09-12T18:17:25.187Z,31.90
2018-09-12T18:19:54.154Z,32.99
2018-09-12T18:22:23.193Z,33.59
2018-09-12T18:24:52.336Z,33.00
2018-09-12T18:27:21.365Z,34.23
2018-09-12T18:29:50.467Z,35.16
2018-09-12T18:32:19.417Z,35.23
2018-09-12T18:34:48.445Z,34.75
2018-09-12T18:37:17.474Z,35.73
2018-09-12T18:39:46.416Z,35.69
2018-09-12T18:42:15.365Z,35.83
2018-09-12T18:44:44.337Z,35.69
2018-09-12T18:47:13.226Z,35.30
2018-09-12T18:49:42.223Z,35.64
2018-09-12T18:52:11.212Z,35.45
2018-09-12T18:54:40.247Z,36.10
2018-09-12T18:57:09.155Z,35.91
2018-09-12T18:59:38.231Z,36.25
2018-09-12T19:02:07.273Z,36.88
2018-09-12T19:04:36.328Z,36.46
2018-09-12T19:07:05.380Z,36.90
2018-09-12T19:09:34.350Z,36.74
2018-09-12T19:12:03.291Z,37.52
2018-09-12T19:14:32.226Z,37.96
2018-09-12T19:17:01.214Z,37.91
2018-09-12T19:19:30.170Z,38.72
2018-09-12T19:21:59.173Z,38.44
2018-09-12T19:24:28.158Z,39.44
2018-09-12T19:26:57.201Z,40.88
2018-09-12T19:29:26.162Z,42.07
2018-09-12T19:31:55.053Z,42.07
2018-09-12T19:34:24.012Z,42.46
2018-09-12T19:36:53.231Z,43.25
2018-09-12T19:39:22.258Z,43.30
2018-09-12T19:41:51.217Z,43.52
2018-09-12T19:44:20.278Z,44.26
2018-09-12T19:46:49.225Z,44.77
2018-09-12T19:49:18.194Z,45.53
2018-09-12T19:51:47.170Z,45.87
2018-09-12T19:54:16.196Z,45.73
2018-09-12T19:56:45.142Z,46.35
2018-09-12T19:59:14.231Z,46.68
2018-09-12T20:01:43.150Z,47.63
2018-09-12T20:04:12.189Z,47.31
2018-09-12T20:06:41.172Z,47.41
2018-09-12T20:09:11.615Z,48.21
2018-09-12T20:11:41.037Z,48.33
2018-09-12T20:14:10.103Z,49.15
2018-09-12T20:16:39.010Z,49.24
2018-09-12T20:19:08.110Z,49.73
2018-09-12T20:21:37.133Z,49.87
2018-09-12T20:24:06.161Z,50.45
2018-09-12T20:26:35.206Z,50.34
2018-09-12T20:29:04.133Z,49.86
2018-09-12T20:31:33.080Z,51.07
2018-09-12T20:34:02.010Z,50.78
2018-09-12T20:36:31.089Z,51.36
2018-09-12T20:39:00.168Z,51.74
2018-09-12T20:41:29.209Z,51.79
2018-09-12T20:43:58.159Z,52.29
2018-09-12T20:46:27.095Z,52.49
2018-09-12T20:48:56.164Z,52.77
2018-09-12T20:51:25.149Z,52.46
2018-09-12T20:53:54.217Z,52.62
2018-09-12T20:56:23.227Z,52.80
2018-09-12T20:58:52.158Z,53.79
2018-09-12T21:01:21.167Z,53.50
2018-09-12T21:03:50.066Z,53.56
2018-09-12T21:06:19.057Z,54.60
2018-09-12T21:08:48.045Z,53.83
2018-09-12T21:11:17.082Z,53.73
2018-09-12T21:13:46.096Z,54.22
2018-09-12T21:16:15.122Z,54.72
2018-09-12T21:18:44.082Z,53.92
2018-09-12T21:21:13.106Z,54.37
2018-09-12T21:23:42.125Z,54.99
2018-09-12T21:26:11.143Z,54.88
2018-09-12T21:28:40.201Z,55.70
2018-09-12T21:31:09.184Z,55.20
2018-09-12T21:33:38.147Z,54.98
2018-09-12T21:36:07.235Z,55.63
2018-09-12T21:38:36.174Z,56.17
2018-09-12T21:41:05.327Z,56.57
2018-09-12T21:43:34.225Z,56.12
2018-09-12T21:46:03.291Z,56.25
2018-09-12T21:48:32.209Z,57.21
2018-09-12T21:51:01.154Z,56.96
2018-09-12T21:53:30.097Z,57.35
2018-09-12T21:55:59.067Z,58.14
2018-09-12T21:58:27.981Z,57.07
2018-09-12T22:00:57.104Z,57.17
2018-09-12T22:03:26.164Z,57.10
2018-09-12T22:05:55.191Z,58.24
2018-09-12T22:08:24.210Z,58.03
2018-09-12T22:10:53.185Z,57.62
2018-09-12T22:13:22.167Z,57.82
2018-09-12T22:15:51.241Z,58.16
2018-09-12T22:18:20.280Z,57.61
2018-09-12T22:20:49.349Z,57.51
2018-09-12T22:23:18.325Z,57.39
2018-09-12T22:25:47.308Z,58.08
2018-09-12T22:28:16.265Z,58.98
2018-09-12T22:30:45.579Z,58.89
2018-09-12T22:33:14.533Z,58.61
2018-09-12T22:35:43.590Z,59.08
2018-09-12T22:38:12.494Z,59.10
2018-09-12T22:40:41.495Z,60.39
2018-09-12T22:43:10.493Z,58.74
2018-09-12T22:45:39.598Z,59.19
2018-09-12T22:48:08.574Z,59.82
2018-09-12T22:50:37.564Z,61.20
2018-09-12T22:53:06.584Z,59.58
2018-09-12T22:55:35.559Z,61.56
2018-09-12T22:58:04.571Z,61.11
2018-09-12T23:00:33.614Z,60.90
2018-09-12T23:03:02.571Z,61.14
2018-09-12T23:05:31.542Z,62.50
2018-09-12T23:08:00.483Z,61.41
2018-09-12T23:10:29.494Z,61.26
2018-09-12T23:12:58.406Z,59.68
2018-09-12T23:15:27.489Z,60.54
2018-09-12T23:17:56.415Z,58.71
2018-09-12T23:20:25.444Z,58.12
2018-09-12T23:22:54.434Z,59.18
2018-09-12T23:25:23.409Z,60.01
2018-09-12T23:27:52.447Z,60.69
2018-09-12T23:30:21.390Z,60.07
2018-09-12T23:32:50.446Z,59.54
2018-09-12T23:35:19.493Z,59.72
2018-09-12T23:37:48.480Z,60.01
2018-09-12T23:40:17.393Z,59.54
2018-09-12T23:42:46.317Z,61.12
2018-09-12T23:45:15.363Z,60.78
2018-09-12T23:47:44.286Z,60.85
2018-09-12T23:50:13.258Z,60.56
2018-09-12T23:52:42.257Z,60.90
2018-09-12T23:55:11.241Z,60.25
2018-09-12T23:57:40.234Z,61.30
